Time;durP1;ratioP1;P1;durP2;ratioP2;P2;SDS_P1;SDS_P2;PMS_P1;PMS_P2;Temp;Humidity;BMP_temperature;BMP_pressure;BME280_temperature;BME280_humidity;BME280_pressure;Samples;Min_cycle;Max_cycle;Signal;HPM_P1;HPM_P2
2022/04/15 00:01:20;;;;;;;;;;;9.00;99.90;;;;;;5069559;28;20044;-69
2022/04/15 00:03:46;;;;;;;;;;;9.00;99.90;;;;;;5080826;28;19927;-68
2022/04/15 00:06:12;;;;;;;11.95;6.90;;;9.00;99.90;;;;;;5083587;28;19928;-69
2022/04/15 00:08:37;;;;;;;;;;;9.00;99.90;;;;;;5082756;28;20400;-68
2022/04/15 00:11:04;;;;;;;13.27;7.97;;;9.00;99.90;;;;;;5083323;28;19923;-68
2022/04/15 00:13:31;;;;;;;18.15;8.25;;;8.90;99.90;;;;;;5082126;28;20036;-68
2022/04/15 00:15:57;;;;;;;13.70;7.57;;;9.00;99.90;;;;;;5074391;28;20139;-68
2022/04/15 00:18:24;;;;;;;15.05;7.90;;;9.00;99.90;;;;;;5072228;28;20075;-68
2022/04/15 00:20:51;;;;;;;15.35;8.73;;;9.10;99.90;;;;;;5068157;28;20041;-69
2022/04/15 00:23:18;;;;;;;20.13;8.65;;;9.10;99.90;;;;;;5066461;28;20080;-68
2022/04/15 00:25:44;;;;;;;16.52;8.07;;;9.10;99.90;;;;;;5063799;28;20044;-68
2022/04/15 00:28:10;;;;;;;;;;;9.20;99.90;;;;;;5066582;28;20040;-69
2022/04/15 00:30:36;;;;;;;12.60;7.50;;;9.10;99.90;;;;;;5065825;28;19923;-68
2022/04/15 00:33:01;;;;;;;11.50;6.82;;;9.20;99.90;;;;;;5067534;28;20044;-69
2022/04/15 00:35:27;;;;;;;;;;;9.20;99.90;;;;;;5068454;28;20099;-68
2022/04/15 00:37:52;;;;;;;11.13;7.20;;;9.20;99.90;;;;;;5066542;28;19920;-68
2022/04/15 00:40:18;;;;;;;;;;;9.20;99.90;;;;;;5067319;28;20040;-67
2022/04/15 00:42:44;;;;;;;20.23;6.75;;;9.30;99.90;;;;;;5067718;28;19912;-68
2022/04/15 00:45:10;;;;;;;;;;;9.30;99.90;;;;;;5067823;28;20428;-67
2022/04/15 00:47:53;;;;;;;12.40;6.40;;;9.30;99.90;;;;;;5066135;28;19920;-68
2022/04/15 00:50:24;;;;;;;11.63;6.53;;;9.30;99.90;;;;;;5067122;28;20091;-68
2022/04/15 00:52:51;;;;;;;10.35;6.88;;;9.30;99.90;;;;;;5063818;28;20096;-68
2022/04/15 00:55:19;;;;;;;12.68;7.40;;;9.30;99.90;;;;;;5065209;28;20044;-68
2022/04/15 00:57:51;;;;;;;13.60;7.18;;;9.20;99.90;;;;;;5066711;28;20048;-67
2022/04/15 01:00:18;;;;;;;14.30;7.50;;;9.20;99.90;;;;;;5066316;28;20128;-68
2022/04/15 01:02:44;;;;;;;11.95;6.93;;;9.20;99.90;;;;;;5044782;28;20044;-68
2022/04/15 01:05:11;;;;;;;14.57;8.93;;;9.20;99.90;;;;;;5046973;28;20707;-68
2022/04/15 01:07:57;;;;;;;19.38;9.63;;;9.20;99.90;;;;;;5044028;28;20047;-68
2022/04/15 01:10:24;;;;;;;16.05;8.02;;;9.30;99.90;;;;;;5043308;28;20048;-67
2022/04/15 01:12:53;;;;;;;13.85;7.63;;;9.30;99.90;;;;;;5041468;28;20029;-67
2022/04/15 01:15:23;;;;;;;15.85;8.13;;;9.30;99.90;;;;;;5044286;28;20068;-67
2022/04/15 01:17:49;;;;;;;18.15;8.85;;;9.40;99.90;;;;;;5041912;28;20689;-67
2022/04/15 01:20:14;;;;;;;;;;;9.40;99.90;;;;;;5046635;28;20061;-68
2022/04/15 01:22:45;;;;;;;12.70;7.60;;;9.40;99.90;;;;;;5045303;28;19921;-67
2022/04/15 01:25:13;;;;;;;16.88;9.07;;;9.40;99.90;;;;;;5061755;28;20036;-67
2022/04/15 01:27:41;;;;;;;18.92;10.02;;;9.40;99.90;;;;;;5046628;28;20809;-68
2022/04/15 01:30:12;;;;;;;25.63;12.00;;;9.30;99.90;;;;;;5046372;28;20045;-67
2022/04/15 01:32:37;;;;;;;18.70;10.80;;;9.20;99.90;;;;;;5059652;28;20040;-68
2022/04/15 01:35:05;;;;;;;;;;;9.30;99.90;;;;;;5044350;28;20418;-68
2022/04/15 01:37:32;;;;;;;23.92;11.18;;;9.30;99.90;;;;;;5051889;28;19924;-68
2022/04/15 01:39:58;;;;;;;20.33;12.57;;;9.30;99.90;;;;;;5066152;28;20040;-68
2022/04/15 01:42:26;;;;;;;;;;;9.30;99.90;;;;;;5053873;28;20071;-67
2022/04/15 01:44:52;;;;;;;22.48;12.60;;;9.30;99.90;;;;;;5048629;28;19921;-67
2022/04/15 01:47:17;;;;;;;;;;;9.20;99.90;;;;;;5058169;28;20037;-69
2022/04/15 01:49:43;;;;;;;23.90;13.02;;;9.20;99.90;;;;;;5047764;28;20420;-68
2022/04/15 01:52:09;;;;;;;;;;;9.10;99.90;;;;;;5057762;28;20044;-68
2022/04/15 01:54:34;;;;;;;23.27;13.07;;;9.00;99.90;;;;;;5049238;28;19917;-68
2022/04/15 01:57:01;;;;;;;21.13;12.77;;;9.00;99.90;;;;;;5050077;28;20112;-68
2022/04/15 01:59:27;;;;;;;26.73;14.90;;;8.90;99.90;;;;;;5052219;28;20033;-67
2022/04/15 02:01:55;;;;;;;;;;;8.90;99.90;;;;;;5048835;28;20032;-69
2022/04/15 02:04:22;;;;;;;23.50;12.82;;;8.80;99.90;;;;;;5052366;28;19924;-68
2022/04/15 02:06:48;;;;;;;24.60;13.75;;;8.80;99.90;;;;;;5046488;28;20045;-67
2022/04/15 02:09:13;;;;;;;;;;;8.80;99.90;;;;;;5056036;28;20048;-67
2022/04/15 02:11:39;;;;;;;;;;;8.80;99.90;;;;;;5066561;28;19990;-68
2022/04/15 02:14:05;;;;;;;;;;;8.70;99.90;;;;;;5044115;28;19920;-68
2022/04/15 02:16:30;;;;;;;;;;;8.70;99.90;;;;;;5045211;28;19966;-68
2022/04/15 02:18:56;;;;;;;;;;;8.70;99.90;;;;;;5062540;28;19924;-68
2022/04/15 02:21:21;;;;;;;;;;;8.70;99.90;;;;;;5046606;28;20382;-68
2022/04/15 02:23:47;;;;;;;;;;;8.60;99.90;;;;;;5052216;28;20376;-67
2022/04/15 02:26:12;;;;;;;;;;;8.60;99.90;;;;;;5063612;28;19924;-67
2022/04/15 02:28:38;;;;;;;;;;;8.50;99.90;;;;;;5047772;28;19921;-68
2022/04/15 02:31:03;;;;;;;;;;;8.50;99.90;;;;;;5064024;28;20371;-67
2022/04/15 02:33:29;;;;;;;;;;;8.60;99.90;;;;;;5048813;28;19920;-67
2022/04/15 02:35:55;;;;;;;;;;;8.50;99.90;;;;;;5047355;28;20503;-67
2022/04/15 02:38:21;;;;;;;;;;;8.50;99.90;;;;;;5055257;28;20351;-67
2022/04/15 02:40:46;;;;;;;;;;;8.50;99.90;;;;;;5045461;28;19917;-67
2022/04/15 02:43:12;;;;;;;;;;;8.50;99.90;;;;;;5053655;28;19916;-67
2022/04/15 02:45:37;;;;;;;;;;;8.50;99.90;;;;;;5058806;28;19932;-67
2022/04/15 02:48:03;;;;;;;;;;;8.50;99.90;;;;;;5056987;28;20009;-67
2022/04/15 02:50:29;;;;;;;;;;;8.50;99.90;;;;;;5060541;28;19924;-66
2022/04/15 02:52:54;;;;;;;;;;;8.60;99.90;;;;;;5057193;28;19917;-68
2022/04/15 02:55:20;;;;;;;;;;;8.60;99.90;;;;;;5045170;28;20062;-67
2022/04/15 02:57:45;;;;;;;;;;;8.60;99.90;;;;;;5049140;28;21008;-67
2022/04/15 03:00:14;;;;;;;;;;;8.60;99.90;;;;;;5057395;28;19954;-67
2022/04/15 03:02:39;;;;;;;;;;;8.60;99.90;;;;;;5059498;28;19974;-67
2022/04/15 03:05:06;;;;;;;;;;;8.50;99.90;;;;;;5053090;28;19925;-67
2022/04/15 03:07:32;;;;;;;;;;;8.50;99.90;;;;;;5046949;28;20337;-67
2022/04/15 03:09:57;;;;;;;;;;;8.60;99.90;;;;;;5058396;28;19927;-67
2022/04/15 03:12:23;;;;;;;;;;;8.50;99.90;;;;;;5046161;28;20000;-66
2022/04/15 03:14:51;;;;;;;;;;;8.50;99.90;;;;;;5041016;28;19951;-66
2022/04/15 03:17:17;;;;;;;;;;;8.50;99.90;;;;;;5060561;28;19959;-66
2022/04/15 03:19:42;;;;;;;;;;;8.40;99.90;;;;;;5059859;28;19951;-66
2022/04/15 03:22:08;;;;;;;;;;;8.50;99.90;;;;;;5046293;28;19920;-66
2022/04/15 03:24:33;;;;;;;;;;;8.40;99.90;;;;;;5043442;28;19926;-66
2022/04/15 03:26:59;;;;;;;;;;;8.60;99.90;;;;;;5065097;28;19943;-67
2022/04/15 03:29:25;;;;;;;;;;;8.50;99.90;;;;;;5050334;28;19996;-68
2022/04/15 03:31:50;;;;;;;;;;;8.50;99.90;;;;;;5060206;28;19916;-68
2022/04/15 03:34:16;;;;;;;;;;;8.50;99.90;;;;;;5046022;28;20073;-69
2022/04/15 03:36:41;;;;;;;;;;;8.60;99.90;;;;;;5038231;28;20429;-69
2022/04/15 03:39:07;;;;;;;;;;;8.60;99.90;;;;;;5050389;28;19920;-68
2022/04/15 03:41:32;;;;;;;;;;;8.60;99.90;;;;;;5043814;28;19924;-69
2022/04/15 03:43:59;;;;;;;;;;;8.70;99.90;;;;;;5049518;28;19924;-68
2022/04/15 03:46:25;;;;;;;;;;;8.70;99.90;;;;;;5059973;28;19971;-67
2022/04/15 03:48:50;;;;;;;;;;;8.70;99.90;;;;;;5054931;28;19964;-69
2022/04/15 03:51:16;;;;;;;;;;;8.60;99.90;;;;;;5056090;28;20020;-67
2022/04/15 03:53:41;;;;;;;;;;;8.70;99.90;;;;;;5057030;28;20144;-69
2022/04/15 03:56:07;;;;;;;;;;;8.60;99.90;;;;;;5053735;28;20364;-67
2022/04/15 03:58:35;;;;;;;;;;;8.70;99.90;;;;;;5057709;28;20391;-68
2022/04/15 04:01:01;;;;;;;;;;;8.60;99.90;;;;;;5052028;28;19927;-68
2022/04/15 04:03:27;;;;;;;;;;;8.60;99.90;;;;;;5052180;28;19917;-68
2022/04/15 04:05:52;;;;;;;;;;;8.60;99.90;;;;;;5052857;28;20339;-69
2022/04/15 04:08:18;;;;;;;;;;;8.60;99.90;;;;;;5045995;28;19920;-67
2022/04/15 04:10:43;;;;;;;;;;;8.60;99.90;;;;;;5047912;28;20054;-68
2022/04/15 04:13:09;;;;;;;;;;;8.60;99.90;;;;;;5045556;28;20404;-70
2022/04/15 04:15:35;;;;;;;;;;;8.60;99.90;;;;;;5046671;28;19916;-68
2022/04/15 04:18:00;;;;;;;;;;;8.60;99.90;;;;;;5065580;28;20086;-67
2022/04/15 04:20:26;;;;;;;;;;;8.60;99.90;;;;;;5050887;28;19924;-68
2022/04/15 04:22:51;;;;;;;;;;;8.70;99.90;;;;;;5057119;28;19920;-69
2022/04/15 04:25:17;;;;;;;;;;;8.70;99.90;;;;;;5054603;28;19959;-68
2022/04/15 04:27:43;;;;;;;;;;;8.70;99.90;;;;;;5045209;28;19916;-67
2022/04/15 04:30:09;;;;;;;;;;;8.70;99.90;;;;;;5052948;28;20007;-67
2022/04/15 04:32:35;;;;;;;;;;;8.60;99.90;;;;;;5043431;28;19917;-68
2022/04/15 04:35:01;;;;;;;;;;;8.60;99.90;;;;;;5041758;28;19942;-68
2022/04/15 04:37:26;;;;;;;;;;;8.60;99.90;;;;;;5044462;28;19917;-68
2022/04/15 04:39:52;;;;;;;;;;;8.60;99.90;;;;;;5054661;28;19916;-68
2022/04/15 04:42:19;;;;;;;;;;;8.50;99.90;;;;;;5050021;28;19924;-69
2022/04/15 04:44:44;;;;;;;;;;;8.50;99.90;;;;;;5048456;28;19920;-69
2022/04/15 04:47:10;;;;;;;;;;;8.50;99.90;;;;;;5051593;28;19966;-67
2022/04/15 04:49:36;;;;;;;;;;;8.60;99.90;;;;;;5053010;28;19920;-68
2022/04/15 04:52:03;;;;;;;;;;;8.60;99.90;;;;;;5053324;28;19923;-68
2022/04/15 04:54:28;;;;;;;;;;;8.60;99.90;;;;;;5042328;28;20019;-69
2022/04/15 04:56:54;;;;;;;;;;;8.60;99.90;;;;;;5049675;28;20019;-67
2022/04/15 04:59:22;;;;;;;;;;;8.50;99.90;;;;;;5058536;28;21286;-67
2022/04/15 05:01:47;;;;;;;;;;;8.50;99.90;;;;;;5052792;28;20012;-67
2022/04/15 05:04:13;;;;;;;;;;;8.50;99.90;;;;;;5038585;28;20007;-67
2022/04/15 05:06:38;;;;;;;;;;;8.50;99.90;;;;;;5043592;28;19927;-68
2022/04/15 05:09:04;;;;;;;;;;;8.60;99.90;;;;;;5044895;28;19917;-67
2022/04/15 05:11:30;;;;;;;;;;;8.60;99.90;;;;;;5058827;28;20063;-68
2022/04/15 05:13:55;;;;;;;;;;;8.60;99.90;;;;;;5041483;28;19921;-69
2022/04/15 05:16:21;;;;;;;;;;;8.70;99.90;;;;;;5056710;28;20017;-68
2022/04/15 05:18:46;;;;;;;;;;;8.60;99.90;;;;;;5063868;28;19981;-68
2022/04/15 05:21:13;;;;;;;;;;;8.60;99.90;;;;;;5045458;28;20382;-68
2022/04/15 05:23:38;;;;;;;;;;;8.60;99.90;;;;;;5042924;28;19917;-68
2022/04/15 05:26:04;;;;;;;;;;;8.70;99.90;;;;;;5035282;28;20669;-67
2022/04/15 05:28:32;;;;;;;;;;;8.80;99.90;;;;;;5034709;28;19956;-68
2022/04/15 05:30:58;;;;;;;;;;;8.70;99.90;;;;;;5064576;28;19927;-67
2022/04/15 05:33:23;;;;;;;;;;;8.70;99.90;;;;;;5037574;28;20707;-69
2022/04/15 05:35:49;;;;;;;;;;;8.70;99.90;;;;;;5032517;28;19928;-68
2022/04/15 05:38:14;;;;;;;;;;;8.70;99.90;;;;;;5032223;28;20627;-69
2022/04/15 05:40:40;;;;;;;;;;;8.70;99.90;;;;;;5037937;28;19923;-70
2022/04/15 05:43:06;;;;;;;;;;;8.70;99.90;;;;;;5058432;28;20437;-69
2022/04/15 05:45:31;;;;;;;;;;;8.80;99.90;;;;;;5040062;28;19928;-68
2022/04/15 05:47:57;;;;;;;;;;;8.80;99.90;;;;;;5043610;28;19923;-66
2022/04/15 05:50:22;;;;;;;;;;;8.80;99.90;;;;;;5042065;28;19921;-67
2022/04/15 05:52:48;;;;;;;;;;;8.90;99.90;;;;;;5052872;28;19916;-67
2022/04/15 05:55:14;;;;;;;;;;;9.00;99.90;;;;;;5057525;28;19921;-66
2022/04/15 05:57:39;;;;;;;;;;;9.00;99.90;;;;;;5062149;28;19920;-69
2022/04/15 06:00:05;;;;;;;;;;;9.00;99.90;;;;;;5061818;28;19922;-67
2022/04/15 06:02:31;;;;;;;;;;;9.10;99.90;;;;;;5024675;28;19920;-67
2022/04/15 06:04:57;;;;;;;;;;;8.80;99.90;;;;;;5037887;28;19932;-66
2022/04/15 06:07:23;;;;;;;;;;;8.70;99.90;;;;;;5045231;28;19925;-65
2022/04/15 06:09:48;;;;;;;;;;;8.80;99.90;;;;;;5043302;28;19978;-65
2022/04/15 06:12:15;;;;;;;;;;;8.90;99.90;;;;;;5039674;28;19939;-66
2022/04/15 06:14:41;;;;;;;;;;;8.70;99.90;;;;;;5041987;28;19917;-67
2022/04/15 06:17:07;;;;;;;;;;;8.80;99.90;;;;;;5041759;28;19921;-69
2022/04/15 06:19:32;;;;;;;;;;;8.60;99.90;;;;;;5043540;28;20113;-67
2022/04/15 06:21:58;;;;;;;;;;;8.50;99.90;;;;;;5043951;28;19943;-66
2022/04/15 06:24:24;;;;;;;;;;;8.40;99.90;;;;;;5041688;28;19932;-68
2022/04/15 06:26:50;;;;;;;;;;;8.20;99.90;;;;;;5037249;28;19928;-73
2022/04/15 06:29:16;;;;;;;;;;;8.30;99.90;;;;;;5040882;28;20369;-69
2022/04/15 06:31:42;;;;;;;;;;;8.40;99.90;;;;;;5041322;28;19923;-69
2022/04/15 06:34:07;;;;;;;;;;;8.40;99.90;;;;;;5041009;28;19971;-68
2022/04/15 06:36:33;;;;;;;;;;;8.50;99.90;;;;;;5049678;28;19979;-68
2022/04/15 06:38:58;;;;;;;;;;;8.40;99.90;;;;;;5041067;28;20657;-66
2022/04/15 06:41:24;;;;;;;;;;;8.30;99.90;;;;;;5043004;28;19947;-68
2022/04/15 06:43:49;;;;;;;;;;;8.40;99.90;;;;;;5040008;28;20560;-70
2022/04/15 06:46:15;;;;;;;;;;;8.30;99.90;;;;;;5039128;28;19931;-69
2022/04/15 06:48:40;;;;;;;;;;;8.30;99.90;;;;;;5043465;28;20579;-70
2022/04/15 06:51:06;;;;;;;;;;;8.30;99.90;;;;;;5040766;28;19917;-68
2022/04/15 06:53:32;;;;;;;;;;;8.30;99.90;;;;;;5039504;28;20575;-70
2022/04/15 06:55:57;;;;;;;;;;;8.40;99.90;;;;;;5039872;28;19920;-69
2022/04/15 06:58:23;;;;;;;;;;;8.50;99.90;;;;;;5041876;28;20015;-67
2022/04/15 07:00:49;;;;;;;;;;;8.40;99.90;;;;;;5038577;28;19973;-72
2022/04/15 07:03:15;;;;;;;;;;;8.30;99.90;;;;;;5039416;28;19928;-69
2022/04/15 07:05:41;;;;;;;;;;;8.40;99.90;;;;;;5043886;28;20321;-69
2022/04/15 07:08:10;;;;;;;;;;;8.40;99.90;;;;;;5040167;28;19917;-68
2022/04/15 07:10:37;;;;;;;;;;;8.30;99.90;;;;;;5042792;28;19966;-68
2022/04/15 07:13:02;;;;;;;;;;;8.40;99.90;;;;;;5044097;28;20003;-69
2022/04/15 07:15:28;;;;;;;;;;;8.40;99.90;;;;;;5044300;28;19928;-68
2022/04/15 07:17:55;;;;;;;;;;;8.10;99.90;;;;;;5040000;28;19920;-69
2022/04/15 07:20:21;;;;;;;;;;;7.90;99.90;;;;;;5046109;28;19983;-68
2022/04/15 07:22:47;;;;;;;;;;;8.10;99.90;;;;;;5041779;28;20873;-69
2022/04/15 07:25:12;;;;;;;;;;;8.10;99.90;;;;;;5042915;28;19919;-67
2022/04/15 07:27:38;;;;;;;;;;;7.80;99.90;;;;;;5054086;28;19920;-66
2022/04/15 07:30:04;;;;;;;;;;;7.70;99.90;;;;;;5053059;28;19923;-68
2022/04/15 07:32:29;;;;;;;;;;;7.80;99.90;;;;;;5052000;28;19928;-69
2022/04/15 07:34:55;;;;;;;;;;;7.80;99.90;;;;;;5048897;28;19921;-69
2022/04/15 07:37:22;;;;;;;;;;;7.70;99.90;;;;;;5064665;28;19920;-69
2022/04/15 07:39:48;;;;;;;;;;;7.70;99.90;;;;;;5055671;28;19923;-69
2022/04/15 07:42:13;;;;;;;;;;;7.70;99.90;;;;;;5049285;28;19916;-68
2022/04/15 07:44:39;;;;;;;;;;;7.80;99.90;;;;;;5056524;28;19970;-71
2022/04/15 07:47:06;;;;;;;;;;;7.80;99.90;;;;;;5062681;28;19931;-67
2022/04/15 07:49:33;;;;;;;;;;;7.70;99.90;;;;;;5054544;28;19917;-67
2022/04/15 07:51:58;;;;;;;;;;;7.70;99.90;;;;;;5066263;28;19973;-67
2022/04/15 07:54:24;;;;;;;;;;;7.70;99.90;;;;;;5046931;28;19923;-69
2022/04/15 07:56:49;;;;;;;;;;;7.70;99.90;;;;;;5047902;28;19944;-67
2022/04/15 07:59:15;;;;;;;;;;;7.70;99.90;;;;;;5066623;28;20431;-66
2022/04/15 08:01:40;;;;;;;;;;;7.20;99.90;;;;;;5048372;28;19952;-67
2022/04/15 08:04:06;;;;;;;;;;;7.30;99.90;;;;;;5064206;28;20460;-66
2022/04/15 08:06:31;;;;;;;;;;;7.30;99.90;;;;;;5050214;28;19964;-67
2022/04/15 08:08:57;;;;;;;;;;;7.40;99.90;;;;;;5065449;28;19916;-67
2022/04/15 08:11:23;;;;;;;;;;;7.50;99.90;;;;;;5049350;28;20384;-67
2022/04/15 08:13:49;;;;;;;;;;;7.50;99.90;;;;;;5050472;28;19951;-67
2022/04/15 08:16:15;;;;;;;;;;;7.40;99.90;;;;;;5067423;28;20432;-66
2022/04/15 08:18:41;;;;;;;;;;;7.30;99.90;;;;;;5056836;28;20003;-66
2022/04/15 08:21:06;;;;;;;;;;;7.30;99.90;;;;;;5065310;28;20399;-66
2022/04/15 08:23:32;;;;;;;;;;;7.40;99.90;;;;;;5062516;28;20015;-66
2022/04/15 08:25:57;;;;;;;;;;;7.30;99.90;;;;;;5054358;28;20665;-67
2022/04/15 08:28:23;;;;;;;;;;;7.20;99.90;;;;;;5057658;28;19916;-66
2022/04/15 08:30:49;;;;;;;;;;;7.10;99.90;;;;;;5054846;28;19929;-66
2022/04/15 08:33:14;;;;;;;;;;;7.10;99.90;;;;;;5054567;28;19920;-66
2022/04/15 08:35:40;;;;;;;;;;;7.20;99.90;;;;;;5051401;28;20444;-66
2022/04/15 08:38:05;;;;;;;;;;;7.10;99.90;;;;;;5048916;28;19944;-66
2022/04/15 08:40:35;;;;;;;;;;;6.90;99.90;;;;;;5060197;28;19917;-67
2022/04/15 08:43:01;;;;;;;;;;;7.00;99.90;;;;;;5048173;28;19921;-66
2022/04/15 08:45:27;;;;;;;;;;;7.20;99.90;;;;;;5053886;28;19921;-66
2022/04/15 08:47:57;;;;;;;;;;;7.00;99.90;;;;;;5069631;28;19927;-67
2022/04/15 08:50:23;;;;;;;;;;;7.00;99.90;;;;;;5052884;28;19920;-66
2022/04/15 08:52:49;;;;;;;;;;;7.00;99.90;;;;;;5050913;28;19923;-66
2022/04/15 08:55:15;;;;;;;;;;;7.00;99.90;;;;;;5059548;28;19924;-65
2022/04/15 08:57:40;;;;;;;;;;;7.20;99.90;;;;;;5063601;28;19916;-66
2022/04/15 09:00:06;;;;;;;;;;;7.30;99.90;;;;;;5048506;28;19927;-70
2022/04/15 09:02:37;;;;;;;;;;;7.00;99.90;;;;;;5041076;28;19923;-67
2022/04/15 09:05:03;;;;;;;;;;;6.90;99.90;;;;;;5043630;28;20019;-66
2022/04/15 09:07:30;;;;;;;;;;;6.70;99.90;;;;;;5046626;28;20327;-68
2022/04/15 09:10:00;;;;;;;;;;;6.70;99.90;;;;;;5044307;28;19921;-66
2022/04/15 09:12:28;;;;;;;;;;;6.80;99.90;;;;;;5027278;28;19950;-68
2022/04/15 09:15:09;;;;;;;;;;;6.90;99.90;;;;;;5043051;28;19947;-66
2022/04/15 09:17:35;;;;;;;;;;;7.00;99.90;;;;;;5039536;28;19924;-67
2022/04/15 09:20:01;;;;;;;;;;;6.90;99.90;;;;;;5043482;28;19992;-67
2022/04/15 09:22:27;;;;;;;;;;;6.90;99.90;;;;;;5044710;28;20296;-65
2022/04/15 09:24:53;;;;;;;;;;;7.00;99.90;;;;;;5054805;28;19916;-66
2022/04/15 09:27:23;;;;;;;;;;;6.80;99.90;;;;;;5047635;28;19921;-66
2022/04/15 09:29:50;;;;;;;;;;;6.90;99.90;;;;;;5056529;28;20402;-67
2022/04/15 09:32:16;;;;;;;;;;;6.70;99.90;;;;;;5045481;28;19921;-66
2022/04/15 09:35:03;;;;;;;;;;;6.70;99.90;;;;;;5044418;28;20422;-66
2022/04/15 09:37:30;;;;;;;;;;;6.90;99.90;;;;;;5045555;28;20023;-66
2022/04/15 09:40:02;;;;;;;;;;;7.00;99.90;;;;;;5056684;28;19927;-66
2022/04/15 09:42:29;;;;;;;;;;;7.00;99.90;;;;;;5049764;28;19916;-67
2022/04/15 09:44:59;;;;;;;;;;;6.90;99.90;;;;;;5033470;28;20375;-66
2022/04/15 09:47:24;;;;;;;;;;;6.80;99.90;;;;;;5034408;28;19943;-65
2022/04/15 09:49:50;;;;;;;;;;;6.80;99.90;;;;;;5048262;28;20379;-68
2022/04/15 09:52:25;;;;;;;;;;;6.70;99.90;;;;;;5064948;28;20610;-66
2022/04/15 09:54:53;;;;;;;;;;;6.80;99.90;;;;;;5054869;28;19974;-64
2022/04/15 09:57:19;;;;;;;;;;;6.90;99.90;;;;;;5054573;28;19916;-67
2022/04/15 09:59:47;;;;;;;;;;;6.80;99.90;;;;;;5048344;28;20384;-63
2022/04/15 10:02:14;;;;;;;;;;;6.90;99.90;;;;;;5048445;28;19939;-65
2022/04/15 10:04:41;;;;;;;;;;;6.90;99.90;;;;;;5044631;28;19946;-63
2022/04/15 10:07:08;;;;;;;;;;;7.00;99.90;;;;;;5042780;28;20442;-68
2022/04/15 10:09:35;;;;;;;;;;;7.20;99.90;;;;;;5043851;28;19963;-66
2022/04/15 10:12:01;;;;;;;;;;;7.10;99.90;;;;;;5044831;28;19921;-65
2022/04/15 10:14:27;;;;;;;;;;;7.10;99.90;;;;;;5042358;28;20008;-64
2022/04/15 10:16:54;;;;;;;;;;;7.20;99.90;;;;;;5046085;28;19924;-66
2022/04/15 10:19:20;;;;;;;;;;;7.10;99.90;;;;;;5042734;28;19920;-67
2022/04/15 10:21:49;;;;;;;;;;;6.90;99.90;;;;;;5046379;28;19924;-65
2022/04/15 10:24:16;;;;;;;;;;;7.00;99.90;;;;;;5039245;28;19956;-66
2022/04/15 10:26:46;;;;;;;;;;;7.00;99.90;;;;;;5037983;28;19924;-64
2022/04/15 10:29:12;;;;;;;;;;;7.00;99.90;;;;;;5037984;28;19947;-65
2022/04/15 10:31:39;;;;;;;;;;;7.10;99.90;;;;;;5035275;28;19921;-66
2022/04/15 10:34:09;;;;;;;;;;;7.20;99.90;;;;;;5042585;28;20003;-66
2022/04/15 10:36:35;;;;;;;;;;;7.00;99.90;;;;;;5051194;28;19939;-69
2022/04/15 10:39:07;;;;;;;;;;;7.10;99.90;;;;;;5042771;28;19916;-66
2022/04/15 10:41:42;;;;;;;;;;;7.10;99.90;;;;;;5043577;28;19943;-69
2022/04/15 10:44:10;;;;;;;;;;;7.20;99.90;;;;;;5039039;28;19917;-67
2022/04/15 10:46:36;;;;;;;;;;;7.20;99.90;;;;;;5048958;28;19968;-66
2022/04/15 10:49:18;;;;;;;;;;;7.20;99.90;;;;;;5049770;28;19920;-66
2022/04/15 10:51:44;;;;;;;;;;;7.00;99.90;;;;;;5042865;28;19913;-66
2022/04/15 10:54:28;;;;;;;;;;;7.00;99.90;;;;;;5039066;28;20418;-66
2022/04/15 10:57:04;;;;;;;;;;;7.30;99.90;;;;;;5045134;28;19983;-66
2022/04/15 11:02:18;;;;;;;;;;;7.40;99.90;;;;;;5048529;28;19920;-65
2022/04/15 11:04:47;;;;;;;;;;;7.40;99.90;;;;;;5051361;28;19920;-68
2022/04/15 11:07:23;;;;;;;;;;;7.30;99.90;;;;;;5043457;28;19928;-66
2022/04/15 11:09:49;;;;;;;;;;;7.30;99.90;;;;;;5051442;28;20151;-70
2022/04/15 11:12:27;;;;;;;;;;;7.20;99.90;;;;;;5039119;28;20580;-66
2022/04/15 11:14:53;;;;;;;;;;;7.20;99.90;;;;;;5037552;28;20001;-67
2022/04/15 11:17:34;;;;;;;;;;;7.30;99.90;;;;;;5040513;28;20395;-68
2022/04/15 11:20:00;;;;;;;;;;;7.20;99.90;;;;;;5057938;28;19920;-67
2022/04/15 11:22:27;;;;;;;;;;;7.20;99.90;;;;;;5042625;28;19948;-65
2022/04/15 11:24:52;;;;;;;;;;;7.10;99.90;;;;;;5038428;28;19917;-68
2022/04/15 11:27:18;;;;;;;;;;;7.10;99.90;;;;;;5052486;28;19927;-67
2022/04/15 11:29:47;;;;;;;;;;;7.10;99.90;;;;;;5039294;28;20059;-67
2022/04/15 11:32:13;;;;;;;;;;;7.10;99.90;;;;;;5040366;28;19921;-67
2022/04/15 11:34:38;;;;;;;;;;;7.10;99.90;;;;;;5037745;28;19924;-66
2022/04/15 11:37:06;;;;;;;;;;;7.20;99.90;;;;;;5041053;28;19917;-66
2022/04/15 11:39:35;;;;;;;;;;;7.10;99.90;;;;;;5041874;28;19920;-70
2022/04/15 11:42:05;;;;;;;;;;;7.30;99.90;;;;;;5040479;28;20384;-67
2022/04/15 11:44:31;;;;;;;;;;;7.30;99.90;;;;;;5040241;28;20384;-66
2022/04/15 11:47:43;;;;;;;;;;;7.30;99.90;;;;;;5040575;28;19975;-66
2022/04/15 11:49:43;;;;;;;;;;;7.30;99.90;;;;;;5042395;28;19920;-66
2022/04/15 11:52:09;;;;;;;;;;;7.60;99.90;;;;;;5047368;28;19924;-68
2022/04/15 11:54:35;;;;;;;;;;;7.80;99.90;;;;;;5041866;28;19917;-70
2022/04/15 11:57:03;;;;;;;;;;;8.00;99.90;;;;;;5041459;28;19921;-66
2022/04/15 11:59:35;;;;;;;;;;;8.30;99.90;;;;;;5048707;28;19917;-71
2022/04/15 12:02:02;;;;;;;;;;;8.50;99.90;;;;;;5041475;28;20476;-68
2022/04/15 12:04:28;;;;;;;;;;;8.70;99.90;;;;;;5038006;28;19921;-67
2022/04/15 12:06:53;;;;;;;;;;;8.60;99.90;;;;;;5042637;28;19928;-67
2022/04/15 12:09:19;;;;;;;;;;;8.60;99.90;;;;;;5052187;28;19916;-69
2022/04/15 12:11:44;;;;;;;;;;;8.60;99.90;;;;;;5055144;28;19944;-67
2022/04/15 12:14:11;;;;;;;;;;;8.80;99.90;;;;;;5046843;28;19964;-68
2022/04/15 12:16:39;;;;;;;;;;;9.10;99.90;;;;;;5043362;28;20295;-70
2022/04/15 12:19:05;;;;;;;;;;;9.30;99.90;;;;;;5046002;28;19917;-67
2022/04/15 12:21:32;;;;;;;;;;;9.40;99.90;;;;;;5045914;28;19982;-68
2022/04/15 12:24:09;;;;;;;;;;;9.40;99.90;;;;;;5042746;28;19967;-67
2022/04/15 12:26:44;;;;;;;;;;;9.60;99.90;;;;;;5040880;28;19940;-70
2022/04/15 12:32:12;;;;;;;;;;;9.40;99.90;;;;;;5044867;28;19913;-70
2022/04/15 12:34:37;;;;;;;;;;;9.50;99.90;;;;;;5043494;28;20388;-69
2022/04/15 12:37:03;;;;;;;;;;;9.50;99.90;;;;;;5049181;28;19916;-69
2022/04/15 12:39:29;;;;;;;;;;;9.60;99.90;;;;;;5056149;28;19923;-68
2022/04/15 12:41:54;;;;;;;;;;;9.70;99.90;;;;;;5045913;28;19916;-70
2022/04/15 12:44:23;;;;;;;;;;;9.90;99.90;;;;;;5056913;28;19916;-69
2022/04/15 12:46:54;;;;;;;;;;;10.00;99.90;;;;;;5064452;28;19920;-71
2022/04/15 12:49:21;;;;;;;;;;;10.20;99.90;;;;;;5049010;28;19923;-69
2022/04/15 12:51:46;;;;;;;;;;;10.30;99.90;;;;;;5042035;28;19929;-71
2022/04/15 12:54:12;;;;;;;;;;;10.30;99.90;;;;;;5056527;28;19916;-67
2022/04/15 12:56:37;;;;;;;;;;;10.20;99.90;;;;;;5040335;28;19913;-67
2022/04/15 12:59:03;;;;;;;;;;;10.10;99.90;;;;;;5055391;28;20374;-70
2022/04/15 13:01:29;;;;;;;;;;;9.80;99.90;;;;;;5042521;28;19916;-68
2022/04/15 13:03:54;;;;;;;;;;;9.80;99.90;;;;;;5056022;28;19920;-71
2022/04/15 13:06:22;;;;;;;;;;;9.90;99.90;;;;;;5035585;28;19972;-66
2022/04/15 13:08:48;;;;;;;;;;;10.00;99.90;;;;;;5055761;28;19916;-67
2022/04/15 13:11:13;;;;;;;;;;;9.90;99.90;;;;;;5048413;28;19916;-70
2022/04/15 13:13:39;;;;;;;;;;;9.90;99.90;;;;;;5042934;28;20494;-70
2022/04/15 13:16:04;;;;;;;;;;;9.90;99.90;;;;;;5059509;28;19916;-69
2022/04/15 13:18:30;;;;;;;;;;;10.00;99.90;;;;;;5053277;28;20568;-68
2022/04/15 13:20:55;;;;;;;;;;;9.80;99.90;;;;;;5057814;28;20471;-71
2022/04/15 13:23:21;;;;;;;;;;;9.80;99.90;;;;;;5058129;28;19920;-66
2022/04/15 13:25:47;;;;;;;;;;;10.00;99.90;;;;;;5050474;28;19916;-68
2022/04/15 13:28:14;;;;;;;;;;;10.10;99.90;;;;;;5049745;28;19916;-70
2022/04/15 13:30:40;;;;;;;;;;;10.20;99.90;;;;;;5051986;28;19952;-68
2022/04/15 13:33:07;;;;;;;;;;;10.50;99.90;;;;;;5048143;28;20461;-71
2022/04/15 13:35:37;;;;;;;;;;;10.50;99.90;;;;;;5050459;28;19916;-70
2022/04/15 13:38:06;;;;;;;;;;;10.70;99.90;;;;;;5042101;28;19927;-68
2022/04/15 13:40:38;;;;;;;;;;;10.50;99.90;;;;;;5044795;28;19916;-66
2022/04/15 13:43:03;;;;;;;;;;;10.70;99.90;;;;;;5043646;28;20484;-66
2022/04/15 13:45:33;;;;;;;;;;;10.80;99.90;;;;;;5044422;28;20431;-66
2022/04/15 13:47:58;;;;;;;;;;;10.80;99.90;;;;;;5040460;28;19931;-67
2022/04/15 13:50:32;;;;;;;;;;;10.70;99.90;;;;;;5045535;28;19916;-67
2022/04/15 13:58:34;;;;;;;;;;;10.80;99.90;;;;;;5040846;28;19992;-70
2022/04/15 14:01:05;;;;;;;;;;;10.60;99.90;;;;;;5049957;28;19917;-71
2022/04/15 14:03:36;;;;;;;;;;;10.50;99.90;;;;;;5043300;28;19928;-68
2022/04/15 14:06:04;;;;;;;;;;;10.50;99.90;;;;;;5040756;28;20388;-70
2022/04/15 14:08:35;;;;;;;;;;;10.50;99.90;;;;;;5048303;28;19920;-69
2022/04/15 14:11:11;;;;;;;;;;;10.70;99.90;;;;;;5054935;28;20003;-70
2022/04/15 14:13:39;;;;;;;;;;;10.70;99.90;;;;;;5045019;28;19920;-70
2022/04/15 14:16:08;;;;;;;;;;;10.70;99.90;;;;;;5055465;28;19971;-69
2022/04/15 14:18:38;;;;;;;;;;;10.70;99.90;;;;;;5044568;28;19924;-69
2022/04/15 14:21:07;;;;;;;;;;;10.90;99.90;;;;;;5051014;28;19916;-69
2022/04/15 14:23:32;;;;;;;;;;;10.90;99.90;;;;;;5049226;28;20530;-71
2022/04/15 14:26:04;;;;;;;;;;;11.00;99.90;;;;;;5057146;28;20460;-71